Time;durP1;ratioP1;P1;durP2;ratioP2;P2;SDS_P1;SDS_P2;PMS_P1;PMS_P2;Temp;Humidity;BMP_temperature;BMP_pressure;BME280_temperature;BME280_humidity;BME280_pressure;Samples;Min_cycle;Max_cycle;Signal;HPM_P1;HPM_P2
2023/01/10 00:00:44;;;;;;;9.23;8.93;;;5.30;99.90;;;;;;6201371;23;20696;-81
2023/01/10 00:03:12;;;;;;;9.37;9.07;;;5.30;99.90;;;;;;6201858;23;20203;-81
2023/01/10 00:05:41;;;;;;;9.00;8.80;;;5.30;99.90;;;;;;6203591;23;20222;-81
2023/01/10 00:08:10;;;;;;;8.80;8.60;;;5.40;99.90;;;;;;6200312;23;20226;-81
2023/01/10 00:10:38;;;;;;;8.67;8.47;;;5.40;99.90;;;;;;6198594;23;20207;-80
2023/01/10 00:13:24;;;;;;;9.00;8.80;;;5.40;99.90;;;;;;6197729;23;20304;-81
2023/01/10 00:15:52;;;;;;;8.80;8.60;;;5.40;99.90;;;;;;6198115;23;20192;-81
2023/01/10 00:18:20;;;;;;;9.00;8.80;;;5.40;99.90;;;;;;6198026;23;20282;-81
2023/01/10 00:20:48;;;;;;;8.80;8.60;;;5.40;99.90;;;;;;6198663;23;20211;-81
2023/01/10 00:23:22;;;;;;;8.83;8.63;;;5.40;99.90;;;;;;6198801;23;20195;-81
2023/01/10 00:25:49;;;;;;;8.87;8.67;;;5.40;99.90;;;;;;6198174;23;20202;-82
2023/01/10 00:28:19;;;;;;;9.00;8.80;;;5.40;99.90;;;;;;6198145;23;20196;-81
2023/01/10 00:30:59;;;;;;;8.60;8.40;;;5.50;99.90;;;;;;6197448;23;20233;-81
2023/01/10 00:33:28;;;;;;;8.60;8.40;;;5.50;99.90;;;;;;6197904;23;20191;-81
2023/01/10 00:35:56;;;;;;;8.67;8.47;;;5.50;99.90;;;;;;6198732;23;20282;-81
2023/01/10 00:38:24;;;;;;;8.70;8.50;;;5.50;99.90;;;;;;6198595;23;20200;-80
2023/01/10 00:40:51;;;;;;;8.50;8.30;;;5.40;99.90;;;;;;6197749;23;20214;-79
2023/01/10 00:46:06;;;;;;;8.60;8.40;;;5.40;99.90;;;;;;6199292;23;20175;-79
2023/01/10 00:48:33;;;;;;;8.47;8.27;;;5.40;99.90;;;;;;6198720;23;20199;-81
2023/01/10 00:51:00;;;;;;;8.50;8.30;;;5.40;99.90;;;;;;6199100;23;20211;-80
2023/01/10 00:53:28;;;;;;;8.80;8.60;;;5.30;99.90;;;;;;6199000;23;20200;-80
2023/01/10 00:55:56;;;;;;;8.80;8.60;;;5.20;99.90;;;;;;6199069;23;20250;-80
2023/01/10 00:58:25;;;;;;;8.57;8.37;;;5.20;99.90;;;;;;6198576;23;20199;-79
2023/01/10 01:00:52;;;;;;;8.90;8.70;;;5.20;99.90;;;;;;6198150;23;20208;-80
2023/01/10 01:03:22;;;;;;;8.90;8.70;;;5.20;99.90;;;;;;6199891;23;20196;-79
2023/01/10 01:05:51;;;;;;;8.70;8.50;;;5.30;99.90;;;;;;6199535;23;20210;-79
2023/01/10 01:08:19;;;;;;;8.80;8.60;;;5.40;99.90;;;;;;6199104;23;20236;-80
2023/01/10 01:10:47;;;;;;;8.80;8.60;;;5.40;99.90;;;;;;6198597;23;20223;-80
2023/01/10 01:13:18;;;;;;;8.70;8.50;;;5.50;99.90;;;;;;6198668;23;20199;-80
2023/01/10 01:15:47;;;;;;;8.90;8.70;;;5.50;99.90;;;;;;6198551;23;20222;-80
2023/01/10 01:18:18;;;;;;;8.60;8.40;;;5.50;99.90;;;;;;6197882;23;20196;-80
2023/01/10 01:20:46;;;;;;;8.70;8.50;;;5.50;99.90;;;;;;6198359;23;20216;-80
2023/01/10 01:23:15;;;;;;;8.40;8.20;;;5.40;99.90;;;;;;6198337;23;20199;-80
2023/01/10 01:25:43;;;;;;;8.80;8.60;;;5.40;99.90;;;;;;6200374;23;20211;-80
2023/01/10 01:28:12;;;;;;;8.50;8.30;;;5.40;99.90;;;;;;6201446;23;20250;-79
2023/01/10 01:30:39;;;;;;;8.43;8.23;;;5.30;99.90;;;;;;6200422;23;20210;-79
2023/01/10 01:33:08;;;;;;;8.50;8.30;;;5.30;99.90;;;;;;6200274;23;20251;-79
2023/01/10 01:35:36;;;;;;;8.50;8.30;;;5.30;99.90;;;;;;6200024;23;20198;-79
2023/01/10 01:38:04;;;;;;;8.50;8.30;;;5.30;99.90;;;;;;6200265;23;20199;-79
2023/01/10 01:40:31;;;;;;;8.23;8.03;;;5.30;99.90;;;;;;6199165;23;20218;-79
2023/01/10 01:42:59;;;;;;;8.50;8.30;;;5.40;99.90;;;;;;6199613;23;20207;-79
2023/01/10 01:45:39;;;;;;;8.50;8.30;;;5.40;99.90;;;;;;6200237;23;20199;-79
2023/01/10 01:48:19;;;;;;;8.50;8.30;;;5.40;99.90;;;;;;6198261;23;20213;-79
2023/01/10 01:50:54;;;;;;;8.60;8.40;;;5.40;99.90;;;;;;6198978;23;20203;-79
2023/01/10 01:53:26;;;;;;;8.40;8.20;;;5.40;99.90;;;;;;6198934;23;20187;-80
2023/01/10 01:55:59;;;;;;;8.50;8.30;;;5.40;99.90;;;;;;6198160;23;20211;-79
2023/01/10 01:58:44;;;;;;;8.50;8.30;;;5.40;99.90;;;;;;6198536;23;20201;-80
2023/01/10 02:01:13;;;;;;;8.60;8.40;;;5.40;99.90;;;;;;6199059;23;20211;-79
2023/01/10 02:03:47;;;;;;;8.43;8.23;;;5.40;99.90;;;;;;6202532;23;20215;-79
2023/01/10 02:06:15;;;;;;;8.40;8.20;;;5.40;99.90;;;;;;6202369;23;20202;-81
2023/01/10 02:08:50;;;;;;;8.50;8.30;;;5.40;99.90;;;;;;6200990;23;20291;-80
2023/01/10 02:11:18;;;;;;;8.47;8.27;;;5.40;99.90;;;;;;6200705;23;20183;-80
2023/01/10 02:13:47;;;;;;;8.70;8.50;;;5.40;99.90;;;;;;6201020;23;20243;-80
2023/01/10 02:16:15;;;;;;;8.57;8.37;;;5.40;99.90;;;;;;6199599;23;20199;-81
2023/01/10 02:18:44;;;;;;;8.70;8.50;;;5.40;99.90;;;;;;6200578;23;20255;-80
2023/01/10 02:21:44;;;;;;;8.43;8.23;;;5.40;99.90;;;;;;6200037;23;20211;-80
2023/01/10 02:25:04;;;;;;;8.60;8.40;;;5.40;99.90;;;;;;6195105;23;20234;-80
2023/01/10 02:27:55;;;;;;;8.90;8.70;;;5.40;99.90;;;;;;6153161;23;20218;-80
2023/01/10 02:30:45;;;;;;;8.90;8.70;;;5.40;99.90;;;;;;6201415;23;20247;-80
2023/01/10 02:33:21;;;;;;;8.60;8.40;;;5.40;99.90;;;;;;6200821;23;20222;-80
2023/01/10 02:36:25;;;;;;;8.80;8.60;;;5.40;99.90;;;;;;6201410;23;20197;-80
2023/01/10 02:39:01;;;;;;;8.83;8.63;;;5.40;99.90;;;;;;6202019;23;20202;-80
2023/01/10 02:41:37;;;;;;;8.77;8.57;;;5.40;99.90;;;;;;6201960;23;20207;-79
2023/01/10 02:44:13;;;;;;;8.70;8.50;;;5.40;99.90;;;;;;6201900;23;20187;-80
2023/01/10 02:46:41;;;;;;;8.57;8.37;;;5.40;99.90;;;;;;6202861;23;20302;-80
2023/01/10 02:49:10;;;;;;;8.83;8.63;;;5.40;99.90;;;;;;6205220;23;20251;-79
2023/01/10 02:51:38;;;;;;;8.60;8.40;;;5.30;99.90;;;;;;6202960;23;20196;-80
2023/01/10 02:54:12;;;;;;;8.57;8.37;;;5.30;99.90;;;;;;6202809;23;20231;-80
2023/01/10 02:57:10;;;;;;;8.93;8.73;;;5.30;99.90;;;;;;6201379;23;20195;-79
2023/01/10 03:00:14;;;;;;;8.70;8.50;;;5.30;99.90;;;;;;6202172;23;20226;-80
2023/01/10 03:03:32;;;;;;;8.60;8.40;;;5.30;99.90;;;;;;6202274;23;20191;-80
2023/01/10 03:06:22;;;;;;;8.53;8.33;;;5.40;99.90;;;;;;6194911;23;20211;-79
2023/01/10 03:08:57;;;;;;;8.60;8.40;;;5.40;99.90;;;;;;6202641;23;20191;-79
2023/01/10 03:11:39;;;;;;;8.97;8.77;;;5.40;99.90;;;;;;6201921;23;20210;-80
2023/01/10 03:14:15;;;;;;;9.00;8.80;;;5.40;99.90;;;;;;6202795;23;20271;-79
2023/01/10 03:16:48;;;;;;;8.63;8.43;;;5.40;99.90;;;;;;6201972;23;20195;-79
2023/01/10 03:19:20;;;;;;;8.77;8.57;;;5.40;99.90;;;;;;6202236;23;20241;-79
2023/01/10 03:21:55;;;;;;;8.90;8.70;;;5.40;99.90;;;;;;6201502;23;20196;-79
2023/01/10 03:24:30;;;;;;;8.80;8.60;;;5.40;99.90;;;;;;6202783;23;20285;-79
2023/01/10 03:27:03;;;;;;;8.80;8.60;;;5.40;99.90;;;;;;6202813;23;20197;-79
2023/01/10 03:29:38;;;;;;;8.57;8.37;;;5.40;99.90;;;;;;6202297;23;20207;-79
2023/01/10 03:32:10;;;;;;;8.70;8.50;;;5.30;99.90;;;;;;6203483;23;20222;-79
2023/01/10 03:34:39;;;;;;;8.63;8.43;;;5.40;99.90;;;;;;6203143;23;20219;-79
2023/01/10 03:37:14;;;;;;;8.70;8.50;;;5.40;99.90;;;;;;6208441;23;20223;-79
2023/01/10 03:39:52;;;;;;;8.60;8.40;;;5.40;99.90;;;;;;6211331;23;20230;-80
2023/01/10 03:42:28;;;;;;;8.60;8.40;;;5.40;99.90;;;;;;6209418;23;20207;-80
2023/01/10 03:45:02;;;;;;;8.87;8.67;;;5.40;99.90;;;;;;6203215;23;20179;-81
2023/01/10 03:47:35;;;;;;;8.77;8.57;;;5.40;99.90;;;;;;6203157;23;20227;-80
2023/01/10 03:50:08;;;;;;;8.63;8.43;;;5.40;99.90;;;;;;6202788;23;20203;-80
2023/01/10 03:52:40;;;;;;;8.50;8.30;;;5.40;99.90;;;;;;6203135;23;20203;-81
2023/01/10 03:55:11;;;;;;;8.30;8.10;;;5.40;99.90;;;;;;6203250;23;20270;-80
2023/01/10 03:57:42;;;;;;;8.50;8.30;;;5.30;99.90;;;;;;6203433;23;20287;-80
2023/01/10 04:00:11;;;;;;;8.30;8.10;;;5.30;99.90;;;;;;6203202;23;20200;-80
2023/01/10 04:02:39;;;;;;;8.20;8.00;;;5.30;99.90;;;;;;6203795;23;20673;-80
2023/01/10 04:05:08;;;;;;;8.40;8.20;;;5.30;99.90;;;;;;6210380;23;20200;-80
2023/01/10 04:07:37;;;;;;;8.30;8.10;;;5.20;99.90;;;;;;6215338;23;20192;-80
2023/01/10 04:10:06;;;;;;;8.20;8.00;;;5.20;99.90;;;;;;6215547;23;20282;-80
2023/01/10 04:12:33;;;;;;;8.30;8.10;;;5.20;99.90;;;;;;6216482;23;20192;-80
2023/01/10 04:15:01;;;;;;;8.63;8.43;;;5.20;99.90;;;;;;6206265;23;20200;-80
2023/01/10 04:17:29;;;;;;;8.40;8.20;;;5.20;99.90;;;;;;6200536;23;20724;-79
2023/01/10 04:19:57;;;;;;;8.30;8.10;;;5.20;99.90;;;;;;6200245;23;20204;-80
2023/01/10 04:22:24;;;;;;;8.30;8.10;;;5.10;99.90;;;;;;6200611;23;20204;-81
2023/01/10 04:24:53;;;;;;;8.20;8.00;;;5.20;99.90;;;;;;6200240;23;20245;-80
2023/01/10 04:27:21;;;;;;;8.10;7.90;;;5.20;99.90;;;;;;6199643;23;20653;-80
2023/01/10 04:29:49;;;;;;;7.90;7.70;;;5.20;99.90;;;;;;6200285;23;20203;-80
2023/01/10 04:32:16;;;;;;;7.90;7.70;;;5.20;99.90;;;;;;6201500;23;20219;-80
2023/01/10 04:34:44;;;;;;;8.10;7.90;;;5.10;99.90;;;;;;6200210;23;20195;-80
2023/01/10 04:37:11;;;;;;;8.20;8.00;;;5.10;99.90;;;;;;6200271;23;20203;-80
2023/01/10 04:39:39;;;;;;;8.40;8.20;;;5.10;99.90;;;;;;6200260;23;20211;-80
2023/01/10 04:42:08;;;;;;;8.30;8.10;;;5.10;99.90;;;;;;6201018;23;20227;-80
2023/01/10 04:44:36;;;;;;;8.23;8.03;;;5.10;99.90;;;;;;6199979;23;20192;-81
2023/01/10 04:47:03;;;;;;;8.30;8.10;;;5.10;99.90;;;;;;6201299;23;20200;-80
2023/01/10 04:49:31;;;;;;;8.37;8.17;;;5.10;99.90;;;;;;6200239;23;20196;-80
2023/01/10 04:51:59;;;;;;;8.10;7.90;;;5.20;99.90;;;;;;6199774;23;20195;-80
2023/01/10 04:54:26;;;;;;;8.10;7.90;;;5.10;99.90;;;;;;6201344;23;20202;-80
2023/01/10 04:56:54;;;;;;;7.80;7.60;;;5.10;99.90;;;;;;6200644;23;20231;-80
2023/01/10 04:59:23;;;;;;;8.10;7.90;;;5.10;99.90;;;;;;6201210;23;20207;-80
2023/01/10 05:01:50;;;;;;;8.27;8.07;;;5.10;99.90;;;;;;6201432;23;20210;-81
2023/01/10 05:04:18;;;;;;;8.27;8.07;;;5.10;99.90;;;;;;6201531;23;20199;-81
2023/01/10 05:06:45;;;;;;;8.07;7.87;;;5.00;99.90;;;;;;6201388;23;20255;-80
2023/01/10 05:09:13;;;;;;;7.90;7.70;;;5.00;99.90;;;;;;6201599;23;20207;-80
2023/01/10 05:11:40;;;;;;;7.90;7.70;;;5.00;99.90;;;;;;6201605;23;20201;-80
2023/01/10 05:14:08;;;;;;;8.10;7.90;;;5.00;99.90;;;;;;6201645;23;20279;-80
2023/01/10 05:16:37;;;;;;;8.10;7.90;;;5.00;99.90;;;;;;6202166;23;20239;-80
2023/01/10 05:19:05;;;;;;;8.10;7.90;;;5.00;99.90;;;;;;6203032;23;20258;-80
2023/01/10 05:21:32;;;;;;;8.20;8.00;;;5.00;99.90;;;;;;6201868;23;20231;-80
2023/01/10 05:24:00;;;;;;;7.83;7.63;;;5.00;99.90;;;;;;6202366;23;20287;-80
2023/01/10 05:26:27;;;;;;;8.13;7.93;;;5.00;99.90;;;;;;6203955;23;20190;-80
2023/01/10 05:28:55;;;;;;;8.07;7.87;;;5.10;99.90;;;;;;6205988;23;20270;-80
2023/01/10 05:31:22;;;;;;;7.80;7.60;;;5.10;99.90;;;;;;6204613;23;20191;-80
2023/01/10 05:33:52;;;;;;;7.90;7.70;;;5.10;99.90;;;;;;6212627;23;20217;-80
2023/01/10 05:36:20;;;;;;;8.10;7.90;;;5.10;99.90;;;;;;6218261;23;20179;-80
2023/01/10 05:38:48;;;;;;;8.00;7.80;;;5.10;99.90;;;;;;6218803;23;20215;-80
2023/01/10 05:41:15;;;;;;;7.70;7.50;;;5.20;99.90;;;;;;6217791;23;20191;-80
2023/01/10 05:43:43;;;;;;;7.73;7.53;;;5.20;99.90;;;;;;6218858;23;20255;-80
2023/01/10 05:46:11;;;;;;;7.80;7.60;;;5.20;99.90;;;;;;6218268;23;20236;-80
2023/01/10 05:48:38;;;;;;;8.00;7.80;;;5.20;99.90;;;;;;6218122;23;20195;-80
2023/01/10 05:51:08;;;;;;;7.97;7.77;;;5.20;99.90;;;;;;6217659;23;20215;-80
2023/01/10 05:53:35;;;;;;;8.00;7.80;;;5.20;99.90;;;;;;6218851;23;20176;-80
2023/01/10 05:56:06;;;;;;;7.73;7.53;;;5.20;99.90;;;;;;6217248;23;20243;-80
2023/01/10 05:58:34;;;;;;;7.73;7.53;;;5.20;99.90;;;;;;6218294;23;20254;-80
2023/01/10 06:01:01;;;;;;;8.10;7.90;;;5.20;99.90;;;;;;6218906;23;20195;-80
2023/01/10 06:03:29;;;;;;;7.90;7.70;;;5.20;99.90;;;;;;6220940;23;20210;-80
2023/01/10 06:05:57;;;;;;;8.07;7.87;;;5.20;99.90;;;;;;6221347;23;20179;-80
2023/01/10 06:08:26;;;;;;;8.10;7.90;;;5.20;99.90;;;;;;6221720;23;20194;-79
2023/01/10 06:10:53;;;;;;;8.33;8.13;;;5.20;99.90;;;;;;6221268;23;20199;-79
2023/01/10 06:13:21;;;;;;;8.30;8.10;;;5.20;99.90;;;;;;6221851;23;20179;-79
2023/01/10 06:15:49;;;;;;;8.10;7.90;;;5.20;99.90;;;;;;6221733;23;20171;-80
2023/01/10 06:18:17;;;;;;;7.80;7.60;;;5.20;99.90;;;;;;6221970;23;20188;-79
2023/01/10 06:20:45;;;;;;;8.10;7.90;;;5.20;99.90;;;;;;6219946;23;20196;-80
2023/01/10 06:23:13;;;;;;;8.10;7.90;;;5.20;99.90;;;;;;6219047;23;20199;-80
2023/01/10 06:25:42;;;;;;;7.90;7.70;;;5.20;99.90;;;;;;6216637;23;20203;-80
2023/01/10 06:28:11;;;;;;;8.30;8.10;;;5.10;99.90;;;;;;6215858;23;20196;-81
2023/01/10 06:30:40;;;;;;;8.10;7.90;;;5.20;99.90;;;;;;6214178;23;20230;-80
2023/01/10 06:33:09;;;;;;;8.00;7.80;;;5.10;99.90;;;;;;6213517;23;20230;-80
2023/01/10 06:35:37;;;;;;;8.10;7.90;;;5.10;99.90;;;;;;6202136;23;20222;-80
2023/01/10 06:38:05;;;;;;;8.27;8.07;;;5.10;99.90;;;;;;6201209;23;20199;-79
2023/01/10 06:40:33;;;;;;;8.10;7.90;;;5.10;99.90;;;;;;6202599;23;20199;-79
2023/01/10 06:43:02;;;;;;;8.17;7.97;;;5.10;99.90;;;;;;6198758;23;20278;-81
2023/01/10 06:45:29;;;;;;;8.30;8.10;;;5.00;99.90;;;;;;6203323;23;20187;-80
2023/01/10 06:47:57;;;;;;;8.60;8.40;;;5.10;99.90;;;;;;6204225;23;20211;-81
2023/01/10 06:50:25;;;;;;;7.90;7.70;;;5.10;99.90;;;;;;6205920;23;20200;-80
2023/01/10 06:52:57;;;;;;;7.90;7.70;;;5.10;99.90;;;;;;6204506;23;20275;-80
2023/01/10 06:55:25;;;;;;;7.90;7.70;;;5.10;99.90;;;;;;6201534;23;20218;-80
2023/01/10 06:57:56;;;;;;;8.80;8.60;;;5.10;99.90;;;;;;6201311;23;20208;-81
2023/01/10 07:00:27;;;;;;;9.00;8.70;;;5.10;99.90;;;;;;6201816;23;20229;-81
2023/01/10 07:02:56;;;;;;;8.90;8.70;;;5.00;99.90;;;;;;6200118;23;20203;-80
2023/01/10 07:05:24;;;;;;;8.90;8.70;;;5.00;99.90;;;;;;6200823;23;20211;-82
2023/01/10 07:07:51;;;;;;;9.10;8.80;;;5.10;99.90;;;;;;6200223;23;20204;-81
2023/01/10 07:10:19;;;;;;;9.30;9.00;;;5.10;99.90;;;;;;6201373;23;20227;-81
2023/01/10 07:12:47;;;;;;;9.20;8.90;;;5.00;99.90;;;;;;6200702;23;20250;-80
2023/01/10 07:15:14;;;;;;;9.60;9.30;;;5.00;99.90;;;;;;6199670;23;20469;-80
2023/01/10 07:17:43;;;;;;;9.30;9.00;;;5.00;99.90;;;;;;6200374;23;20192;-81
2023/01/10 07:20:12;;;;;;;9.50;9.20;;;5.00;99.90;;;;;;6204263;23;20211;-81
2023/01/10 07:22:40;;;;;;;9.30;9.00;;;5.00;99.90;;;;;;6210967;23;20251;-81
2023/01/10 07:25:08;;;;;;;9.10;8.80;;;5.00;99.90;;;;;;6208162;23;20200;-81
2023/01/10 07:27:37;;;;;;;9.33;9.03;;;5.10;99.90;;;;;;6204302;23;20207;-80
2023/01/10 07:30:06;;;;;;;9.10;8.80;;;5.10;99.90;;;;;;6201983;23;20290;-81
2023/01/10 07:32:35;;;;;;;9.10;8.80;;;5.10;99.90;;;;;;6199596;23;20202;-81
2023/01/10 07:35:04;;;;;;;9.07;8.77;;;5.20;99.90;;;;;;6200619;23;20246;-81
2023/01/10 07:37:32;;;;;;;8.80;8.60;;;5.30;99.90;;;;;;6213495;23;20239;-81
2023/01/10 07:39:59;;;;;;;9.00;8.80;;;5.30;99.90;;;;;;6217579;23;20203;-81
2023/01/10 07:42:27;;;;;;;8.97;8.73;;;5.30;99.90;;;;;;6220342;23;20198;-81
2023/01/10 07:44:55;;;;;;;9.20;8.90;;;5.30;99.90;;;;;;6219960;23;20184;-80
2023/01/10 07:47:22;;;;;;;8.80;8.60;;;5.30;99.90;;;;;;6219109;23;20215;-80
2023/01/10 07:49:50;;;;;;;9.13;8.83;;;5.30;99.90;;;;;;6219370;23;20206;-81
2023/01/10 07:52:22;;;;;;;9.10;8.80;;;5.30;99.90;;;;;;6218788;23;20204;-81
2023/01/10 07:54:50;;;;;;;8.90;8.70;;;5.20;99.90;;;;;;6216364;23;20191;-80
2023/01/10 07:57:17;;;;;;;9.10;8.80;;;5.30;99.90;;;;;;6214595;23;20220;-80
2023/01/10 07:59:45;;;;;;;8.97;8.77;;;5.30;99.90;;;;;;6216031;23;20222;-80
2023/01/10 08:02:12;;;;;;;8.90;8.70;;;5.30;99.90;;;;;;6214090;23;20218;-81
2023/01/10 08:04:40;;;;;;;8.50;8.30;;;5.30;99.90;;;;;;6199479;23;20188;-80
2023/01/10 08:07:07;;;;;;;8.80;8.60;;;5.40;99.90;;;;;;6199967;23;20255;-81
2023/01/10 08:09:36;;;;;;;8.80;8.60;;;5.40;99.90;;;;;;6201355;23;20231;-82
2023/01/10 08:12:04;;;;;;;9.17;8.87;;;5.40;99.90;;;;;;6201334;23;20263;-81
2023/01/10 08:14:32;;;;;;;8.63;8.43;;;5.30;99.90;;;;;;6201272;23;20211;-81
2023/01/10 08:16:59;;;;;;;8.70;8.50;;;5.40;99.90;;;;;;6200590;23;20255;-81
2023/01/10 08:19:27;;;;;;;8.57;8.37;;;5.40;99.90;;;;;;6200017;23;20204;-81
2023/01/10 08:21:55;;;;;;;8.30;8.10;;;5.30;99.90;;;;;;6200009;23;20271;-80
2023/01/10 08:24:23;;;;;;;8.80;8.60;;;5.30;99.90;;;;;;6200118;23;20199;-80
2023/01/10 08:26:53;;;;;;;8.40;8.20;;;5.20;99.90;;;;;;6200199;23;20270;-81
2023/01/10 08:29:20;;;;;;;8.37;8.17;;;5.30;99.90;;;;;;6199262;23;20206;-81
2023/01/10 08:31:48;;;;;;;8.23;8.03;;;5.30;99.90;;;;;;6200691;23;20230;-80
2023/01/10 08:34:15;;;;;;;8.17;7.97;;;5.30;99.90;;;;;;6200944;23;20203;-80
2023/01/10 08:36:43;;;;;;;8.37;8.17;;;5.40;99.90;;;;;;6200892;23;20223;-80
2023/01/10 08:39:10;;;;;;;8.50;8.30;;;5.40;99.90;;;;;;6200360;23;20280;-80
2023/01/10 08:41:40;;;;;;;8.50;8.30;;;5.40;99.90;;;;;;6200728;23;20191;-80
2023/01/10 08:44:10;;;;;;;8.47;8.27;;;5.40;99.90;;;;;;6200794;23;20200;-80
2023/01/10 08:46:38;;;;;;;8.70;8.50;;;5.40;99.90;;;;;;6201063;23;20227;-80
2023/01/10 08:49:05;;;;;;;8.80;8.60;;;5.50;99.90;;;;;;6200985;23;20204;-81
2023/01/10 08:51:33;;;;;;;8.60;8.40;;;5.50;99.90;;;;;;6200551;23;20226;-81
2023/01/10 08:54:01;;;;;;;8.40;8.20;;;5.50;99.90;;;;;;6201498;23;20203;-81
2023/01/10 08:56:29;;;;;;;8.50;8.30;;;5.50;99.90;;;;;;6200202;23;20191;-81
2023/01/10 08:58:57;;;;;;;8.47;8.27;;;5.50;99.90;;;;;;6200583;23;20204;-81
2023/01/10 09:01:26;;;;;;;8.73;8.53;;;5.50;99.90;;;;;;6199937;23;20195;-81
2023/01/10 09:03:53;;;;;;;8.80;8.60;;;5.50;99.90;;;;;;6200836;23;20196;-80
2023/01/10 09:06:21;;;;;;;8.73;8.53;;;5.50;99.90;;;;;;6200638;23;20192;-80
2023/01/10 09:08:48;;;;;;;8.60;8.40;;;5.50;99.90;;;;;;6201007;23;20283;-81
2023/01/10 09:11:16;;;;;;;8.20;8.00;;;5.50;99.90;;;;;;6199787;23;20192;-80
2023/01/10 09:13:43;;;;;;;8.20;8.00;;;5.60;99.90;;;;;;6200292;23;20187;-81
2023/01/10 09:16:11;;;;;;;8.17;7.97;;;5.50;99.90;;;;;;6200789;23;20191;-83
2023/01/10 09:18:41;;;;;;;7.90;7.70;;;5.50;99.90;;;;;;6201231;23;20203;-79
2023/01/10 09:21:09;;;;;;;8.37;8.17;;;5.50;99.90;;;;;;6202585;23;20230;-80
2023/01/10 09:23:38;;;;;;;7.87;7.67;;;5.60;99.90;;;;;;6200144;23;20215;-79
2023/01/10 09:26:07;;;;;;;7.80;7.60;;;5.70;99.90;;;;;;6200237;23;20191;-82
2023/01/10 09:28:36;;;;;;;8.30;8.10;;;5.80;99.90;;;;;;6201035;23;20199;-83
2023/01/10 09:31:05;;;;;;;8.20;8.00;;;5.80;99.90;;;;;;6203016;23;20203;-82
2023/01/10 09:33:33;;;;;;;8.50;8.30;;;5.70;99.90;;;;;;6202355;23;20219;-82
2023/01/10 09:36:02;;;;;;;8.33;8.13;;;5.70;99.90;;;;;;6200156;23;20192;-82
2023/01/10 09:38:30;;;;;;;8.40;8.20;;;5.80;99.90;;;;;;6201546;23;20558;-82
2023/01/10 09:41:17;;;;;;;8.30;8.10;;;5.80;99.90;;;;;;6198921;23;20274;-82
2023/01/10 09:44:01;;;;;;;8.43;8.23;;;5.80;99.90;;;;;;6199481;23;20210;-82
2023/01/10 09:46:42;;;;;;;8.77;8.57;;;5.90;99.90;;;;;;6199833;23;20187;-82
2023/01/10 09:49:29;;;;;;;8.60;8.40;;;5.90;99.90;;;;;;6198993;23;20288;-82
2023/01/10 09:51:59;;;;;;;8.30;8.10;;;5.90;99.90;;;;;;6198027;23;20191;-82
2023/01/10 09:54:30;;;;;;;8.87;8.67;;;5.90;99.90;;;;;;6198716;23;20246;-83
2023/01/10 09:57:00;;;;;;;8.50;8.30;;;5.80;99.90;;;;;;6199357;23;20196;-82
2023/01/10 09:59:38;;;;;;;8.60;8.40;;;5.80;99.90;;;;;;6198157;23;20284;-82
2023/01/10 10:02:24;;;;;;;8.60;8.40;;;5.80;99.90;;;;;;6198188;23;20192;-82
2023/01/10 10:05:08;;;;;;;8.80;8.60;;;5.90;99.90;;;;;;6199820;23;20199;-82
2023/01/10 10:07:38;;;;;;;8.73;8.53;;;5.90;99.90;;;;;;6199199;23;20195;-82
2023/01/10 10:10:07;;;;;;;8.57;8.37;;;6.00;99.90;;;;;;6198795;23;20203;-82
2023/01/10 10:12:44;;;;;;;8.50;8.30;;;6.00;99.90;;;;;;6209448;23;20283;-83
2023/01/10 10:15:24;;;;;;;8.70;8.50;;;6.00;99.90;;;;;;6215572;23;20214;-82
2023/01/10 10:18:02;;;;;;;8.80;8.60;;;6.10;99.90;;;;;;6217809;23;20215;-81
2023/01/10 10:20:47;;;;;;;8.90;8.70;;;6.10;99.90;;;;;;6219101;23;20219;-82
2023/01/10 10:23:37;;;;;;;8.97;8.77;;;6.10;99.90;;;;;;6218855;23;20192;-81
2023/01/10 10:26:13;;;;;;;9.20;8.90;;;6.20;99.90;;;;;;6215773;23;20172;-82
2023/01/10 10:29:51;;;;;;;8.87;8.67;;;6.20;99.90;;;;;;6215250;23;20226;-82
2023/01/10 10:33:00;;;;;;;8.80;8.60;;;6.20;99.90;;;;;;6215143;23;20210;-86
2023/01/10 10:35:32;;;;;;;9.03;8.80;;;6.20;99.90;;;;;;6208836;23;20195;-83
2023/01/10 10:38:08;;;;;;;9.20;8.90;;;6.20;99.90;;;;;;6204360;23;20180;-82
2023/01/10 10:40:44;;;;;;;8.90;8.70;;;6.10;99.90;;;;;;6200477;23;20226;-83
2023/01/10 10:43:20;;;;;;;9.30;9.00;;;6.10;99.90;;;;;;6199253;23;20251;-83
2023/01/10 10:45:53;;;;;;;8.90;8.70;;;6.00;99.90;;;;;;6201447;23;20192;-82
2023/01/10 10:48:25;;;;;;;8.90;8.70;;;6.00;99.90;;;;;;6199941;23;20246;-83
2023/01/10 10:51:03;;;;;;;9.17;8.87;;;6.00;99.90;;;;;;6201177;23;20308;-83
2023/01/10 10:53:34;;;;;;;9.10;8.80;;;6.00;99.90;;;;;;6201855;23;20196;-82
2023/01/10 10:56:06;;;;;;;9.20;8.90;;;6.00;99.90;;;;;;6201500;23;20219;-83
2023/01/10 10:58:36;;;;;;;9.20;8.90;;;6.00;99.90;;;;;;6198722;23;20203;-82
2023/01/10 11:01:04;;;;;;;9.43;9.13;;;6.10;99.90;;;;;;6200998;23;20206;-82
2023/01/10 11:03:43;;;;;;;9.47;9.17;;;6.00;99.90;;;;;;6202777;23;20235;-81
2023/01/10 11:06:11;;;;;;;9.40;9.10;;;6.00;99.90;;;;;;6207791;23;20196;-81
2023/01/10 11:08:42;;;;;;;9.17;8.87;;;6.00;99.90;;;;;;6209307;23;20206;-81
2023/01/10 11:11:21;;;;;;;9.20;8.90;;;6.00;99.90;;;;;;6207905;23;20204;-81
2023/01/10 11:13:55;;;;;;;9.27;8.97;;;6.00;99.90;;;;;;6201764;23;20246;-81
2023/01/10 11:16:30;;;;;;;9.20;8.90;;;6.00;99.90;;;;;;6202079;23;21089;-81
2023/01/10 11:19:15;;;;;;;9.07;8.77;;;6.00;99.90;;;;;;6203765;23;20199;-81
2023/01/10 11:24:44;;;;;;;9.50;9.20;;;6.10;99.90;;;;;;6261093;22;20229;-87
2023/01/10 11:27:22;;;;;;;9.40;9.10;;;6.10;99.90;;;;;;6262537;22;20217;-85
2023/01/10 11:30:01;;;;;;;9.37;9.07;;;6.20;99.90;;;;;;6263934;22;20223;-85
2023/01/10 11:32:40;;;;;;;9.50;9.20;;;6.30;99.90;;;;;;6230892;23;20245;-87
2023/01/10 11:35:28;;;;;;;9.27;8.97;;;6.40;99.90;;;;;;6229454;23;20684;-88
2023/01/10 11:41:00;;;;;;;9.60;9.30;;;6.50;99.90;;;;;;6230643;22;20191;-87
2023/01/10 11:43:39;;;;;;;9.30;9.00;;;6.50;99.90;;;;;;6231211;23;20230;-86
2023/01/10 11:46:19;;;;;;;9.40;9.10;;;6.50;99.90;;;;;;6231398;23;20191;-87
2023/01/10 11:48:56;;;;;;;9.43;9.13;;;6.50;99.90;;;;;;6232536;23;20187;-86
2023/01/10 11:51:27;;;;;;;9.50;9.20;;;6.40;99.90;;;;;;6240280;22;20218;-85
2023/01/10 11:54:04;;;;;;;9.70;9.40;;;6.40;99.90;;;;;;6240878;23;20698;-85
2023/01/10 11:56:34;;;;;;;9.67;9.37;;;6.50;99.90;;;;;;6248541;23;20218;-86
2023/01/10 11:59:20;;;;;;;9.73;9.43;;;6.50;99.90;;;;;;6235742;23;20285;-85
2023/01/10 12:01:58;;;;;;;9.43;9.13;;;6.50;99.90;;;;;;6234550;22;20203;-85
2023/01/10 12:04:29;;;;;;;9.40;9.10;;;6.40;99.90;;;;;;6234500;23;20233;-85
2023/01/10 12:07:07;;;;;;;9.50;9.20;;;6.30;99.90;;;;;;6233648;23;20219;-86
2023/01/10 12:10:10;;;;;;;9.50;9.20;;;6.40;99.90;;;;;;6232163;23;20209;-87
2023/01/10 12:12:39;;;;;;;9.73;9.43;;;6.40;99.90;;;;;;6231914;23;20242;-86
2023/01/10 12:15:35;;;;;;;9.63;9.33;;;6.30;99.90;;;;;;6232806;23;20198;-87
2023/01/10 12:18:05;;;;;;;9.47;9.17;;;6.20;99.90;;;;;;6231324;23;20262;-87
2023/01/10 12:20:42;;;;;;;9.37;9.07;;;6.20;99.90;;;;;;6231941;22;20238;-86
2023/01/10 12:23:22;;;;;;;9.17;8.87;;;6.20;99.90;;;;;;6232694;23;21003;-86
2023/01/10 12:25:50;;;;;;;9.50;9.20;;;6.20;99.90;;;;;;6232811;23;20187;-87
2023/01/10 12:28:28;;;;;;;9.37;9.07;;;6.20;99.90;;;;;;6232375;23;20230;-86
2023/01/10 12:31:07;;;;;;;9.40;9.10;;;6.20;99.90;;;;;;6234519;22;20289;-87
2023/01/10 12:33:39;;;;;;;9.10;8.80;;;6.30;99.90;;;;;;6249149;23;20203;-87
2023/01/10 12:36:33;;;;;;;9.37;9.07;;;6.30;99.90;;;;;;6236989;23;20210;-86
2023/01/10 12:39:15;;;;;;;9.60;9.30;;;6.40;99.90;;;;;;6235314;23;20218;-87
2023/01/10 12:44:46;;;;;;;9.37;9.07;;;6.40;99.90;;;;;;6233879;23;20202;-86
2023/01/10 12:47:33;;;;;;;9.23;8.93;;;6.40;99.90;;;;;;6234205;23;20191;-86
2023/01/10 12:50:12;;;;;;;9.67;9.37;;;6.40;99.90;;;;;;6233455;22;20191;-86
2023/01/10 12:52:51;;;;;;;9.30;9.00;;;6.40;99.90;;;;;;6232232;23;20197;-86
2023/01/10 12:55:20;;;;;;;9.30;9.00;;;6.40;99.90;;;;;;6232190;23;20254;-86
2023/01/10 12:57:52;;;;;;;9.60;9.30;;;6.40;99.90;;;;;;6232166;23;20258;-86
2023/01/10 13:00:25;;;;;;;9.30;9.00;;;6.50;99.90;;;;;;6235378;22;20198;-86
2023/01/10 13:03:03;;;;;;;9.33;9.03;;;6.50;99.90;;;;;;6244324;23;20192;-86
2023/01/10 13:05:35;;;;;;;8.90;8.70;;;6.40;99.90;;;;;;6238294;23;20221;-86
2023/01/10 13:08:11;;;;;;;9.10;8.80;;;6.50;99.90;;;;;;6236556;23;20187;-85
2023/01/10 13:10:49;;;;;;;9.00;8.80;;;6.40;99.90;;;;;;6234553;22;20209;-86
2023/01/10 13:13:30;;;;;;;9.60;9.30;;;6.40;99.90;;;;;;6233220;23;20190;-86
2023/01/10 13:16:16;;;;;;;9.20;8.90;;;6.40;99.90;;;;;;6233712;23;20183;-86
2023/01/10 13:21:51;;;;;;;9.50;9.20;;;6.40;99.90;;;;;;6230402;22;20198;-86
2023/01/10 13:24:27;;;;;;;9.13;8.83;;;6.40;99.90;;;;;;6232230;23;20211;-86
2023/01/10 13:27:00;;;;;;;9.30;9.00;;;6.40;99.90;;;;;;6231972;23;20186;-86
2023/01/10 13:29:36;;;;;;;9.30;9.00;;;6.40;99.90;;;;;;6233892;23;20202;-86
2023/01/10 13:32:23;;;;;;;9.53;9.23;;;6.40;99.90;;;;;;6232151;22;20209;-86
2023/01/10 13:35:11;;;;;;;9.33;9.03;;;6.40;99.90;;;;;;6236096;23;20218;-85
2023/01/10 13:37:40;;;;;;;8.80;8.60;;;6.40;99.90;;;;;;6232363;23;20206;-85
2023/01/10 13:40:20;;;;;;;8.80;8.60;;;6.40;99.90;;;;;;6232215;22;20195;-85